Time;durP1;ratioP1;P1;durP2;ratioP2;P2;SDS_P1;SDS_P2;PMS_P1;PMS_P2;Temp;Humidity;BMP_temperature;BMP_pressure;BME280_temperature;BME280_humidity;BME280_pressure;Samples;Min_cycle;Max_cycle;Signal;HPM_P1;HPM_P2
2022/11/01 00:01:45;;;;;;;;;;;;;;;3.90;65.68;101744.41;1867191;77;20137;-54
2022/11/01 00:04:13;;;;;;;;;;;;;;;3.82;65.74;101748.28;1867484;77;20124;-55
2022/11/01 00:06:41;;;;;;;;;;;;;;;3.72;65.96;101749.52;1867540;77;20116;-56
2022/11/01 00:09:08;;;;;;;;;;;;;;;3.65;66.06;101749.91;1867521;76;20120;-64
2022/11/01 00:11:36;;;;;;;;;;;;;;;3.59;66.33;101749.88;1867403;77;20205;-64
2022/11/01 00:14:04;;;;;;;;;;;;;;;3.52;66.63;101750.70;1867274;77;20120;-63
2022/11/01 00:16:33;;;;;;;;;;;;;;;3.46;67.07;101752.40;1867546;76;20168;-62
2022/11/01 00:19:00;;;;;;;;;;;;;;;3.42;67.22;101744.58;1867438;77;20109;-62
2022/11/01 00:21:28;;;;;;;;;;;;;;;3.34;67.10;101736.72;1867513;77;20116;-61
2022/11/01 00:23:56;;;;;;;;;;;;;;;3.28;67.07;101732.34;1867204;76;20120;-62
2022/11/01 00:26:24;;;;;;;;;;;;;;;3.25;67.27;101731.45;1867417;77;20147;-55
2022/11/01 00:28:53;;;;;;;;;;;;;;;3.21;67.29;101730.95;1867552;77;20234;-55
2022/11/01 00:31:21;;;;;;;;;;;;;;;3.14;67.80;101734.41;1867311;77;20124;-56
2022/11/01 00:33:49;;;;;;;;;;;;;;;3.12;67.69;101721.37;1867490;77;20117;-55
2022/11/01 00:36:17;;;;;;;;;;;;;;;3.01;67.65;101719.98;1867472;76;20116;-55
2022/11/01 00:38:46;;;;;;;;;;;;;;;2.91;68.42;101728.56;1867574;76;20167;-55
2022/11/01 00:41:14;;;;;;;;;;;;;;;2.93;68.42;101724.24;1867368;76;20143;-57
2022/11/01 00:43:42;;;;;;;;;;;;;;;2.93;68.65;101726.84;1864743;77;20168;-53
2022/11/01 00:46:10;;;;;;;;;;;;;;;2.86;68.96;101715.53;1865988;77;20155;-53
2022/11/01 00:48:38;;;;;;;;;;;;;;;2.86;68.70;101715.97;1865988;76;20108;-54
2022/11/01 00:51:05;;;;;;;;;;;;;;;2.88;68.20;101711.21;1865884;76;20144;-57
2022/11/01 00:53:33;;;;;;;;;;;;;;;2.89;68.18;101715.98;1865979;77;20187;-58
2022/11/01 00:56:02;;;;;;;;;;;;;;;2.89;68.48;101709.48;1866850;77;20151;-50
2022/11/01 00:58:30;;;;;;;;;;;;;;;2.85;68.60;101710.31;1867494;77;20124;-52
2022/11/01 01:00:57;;;;;;;;;;;;;;;2.76;69.06;101720.20;1867558;76;20104;-56
2022/11/01 01:03:25;;;;;;;;;;;;;;;2.59;69.44;101723.09;1867191;77;20151;-60
2022/11/01 01:05:53;;;;;;;;;;;;;;;2.46;69.69;101729.89;1867451;77;20104;-60
2022/11/01 01:08:22;;;;;;;;;;;;;;;2.43;69.36;101723.35;1867502;77;20112;-59
2022/11/01 01:10:49;;;;;;;;;;;;;;;2.46;69.01;101728.59;1867501;77;20147;-59
2022/11/01 01:13:17;;;;;;;;;;;;;;;2.42;69.03;101735.92;1867268;76;20250;-61
2022/11/01 01:15:45;;;;;;;;;;;;;;;2.30;69.43;101727.11;1867483;77;20151;-61
2022/11/01 01:18:13;;;;;;;;;;;;;;;2.17;69.52;101730.44;1867364;77;20171;-58
2022/11/01 01:20:41;;;;;;;;;;;;;;;2.01;69.96;101729.80;1867475;77;20119;-58
2022/11/01 01:23:08;;;;;;;;;;;;;;;1.88;70.55;101722.28;1866505;77;20105;-60
2022/11/01 01:25:38;;;;;;;;;;;;;;;1.78;71.12;101723.04;1865958;76;20121;-60
2022/11/01 01:28:05;;;;;;;;;;;;;;;1.69;71.59;101719.45;1865917;77;20143;-60
2022/11/01 01:30:33;;;;;;;;;;;;;;;1.66;71.96;101723.73;1865878;77;20125;-61
2022/11/01 01:33:01;;;;;;;;;;;;;;;1.65;72.43;101725.90;1865944;76;20222;-61
2022/11/01 01:35:29;;;;;;;;;;;;;;;1.63;72.54;101723.28;1865952;77;20120;-61
2022/11/01 01:37:57;;;;;;;;;;;;;;;1.60;72.59;101725.83;1865933;77;20116;-62
2022/11/01 01:40:25;;;;;;;;;;;;;;;1.52;72.94;101730.91;1865966;77;20198;-61
2022/11/01 01:42:52;;;;;;;;;;;;;;;1.47;73.14;101735.16;1866002;77;20155;-60
2022/11/01 01:45:25;;;;;;;;;;;;;;;1.49;72.64;101732.16;1865929;77;20120;-60
2022/11/01 01:47:54;;;;;;;;;;;;;;;1.53;72.40;101733.08;1866033;76;20190;-59
2022/11/01 01:50:32;;;;;;;;;;;;;;;1.52;72.68;101735.23;1866050;77;20108;-59
2022/11/01 01:53:04;;;;;;;;;;;;;;;1.42;73.08;101738.14;1867059;76;20143;-58
2022/11/01 01:55:43;;;;;;;;;;;;;;;1.30;73.39;101743.13;1866750;77;20108;-60
2022/11/01 01:58:12;;;;;;;;;;;;;;;1.32;73.21;101745.33;1866065;77;20390;-51
2022/11/01 02:00:41;;;;;;;;;;;;;;;1.28;73.34;101742.24;1867469;77;20104;-51
2022/11/01 02:03:09;;;;;;;;;;;;;;;1.29;73.42;101745.27;1867536;77;20390;-51
2022/11/01 02:05:54;;;;;;;;;;;;;;;1.30;73.01;101747.03;1867312;77;20112;-52
2022/11/01 02:08:28;;;;;;;;;;;;;;;1.31;73.07;101748.36;1867554;76;20223;-51
2022/11/01 02:10:57;;;;;;;;;;;;;;;1.26;73.30;101746.54;1867544;77;20117;-51
2022/11/01 02:13:25;;;;;;;;;;;;;;;1.22;73.35;101751.20;1867601;76;20113;-50
2022/11/01 02:15:58;;;;;;;;;;;;;;;1.20;73.45;101757.70;1867351;77;20202;-50
2022/11/01 02:18:33;;;;;;;;;;;;;;;1.12;73.63;101763.17;1867500;77;20104;-56
2022/11/01 02:21:09;;;;;;;;;;;;;;;1.07;73.79;101751.84;1867639;76;20108;-56
2022/11/01 02:23:44;;;;;;;;;;;;;;;1.02;73.80;101751.78;1867071;76;20147;-57
2022/11/01 02:26:17;;;;;;;;;;;;;;;1.06;73.43;101759.19;1864225;76;20151;-56
2022/11/01 02:28:46;;;;;;;;;;;;;;;1.09;73.26;101764.44;1866807;76;20151;-56
2022/11/01 02:31:21;;;;;;;;;;;;;;;1.07;73.36;101765.70;1865888;77;20141;-56
2022/11/01 02:33:50;;;;;;;;;;;;;;;1.03;73.57;101770.80;1866028;77;20116;-56
2022/11/01 02:36:25;;;;;;;;;;;;;;;0.99;73.60;101784.14;1866182;75;20117;-56
2022/11/01 02:38:55;;;;;;;;;;;;;;;0.96;73.67;101776.33;1866148;76;20206;-55
2022/11/01 02:41:27;;;;;;;;;;;;;;;0.94;73.70;101785.77;1865922;76;20116;-57
2022/11/01 02:43:56;;;;;;;;;;;;;;;0.98;73.34;101781.11;1866157;76;20168;-56
2022/11/01 02:49:12;;;;;;;;;;;;;;;0.98;73.42;101777.22;1865990;77;20117;-56
2022/11/01 02:51:42;;;;;;;;;;;;;;;0.95;73.82;101781.05;1866050;76;20382;-56
2022/11/01 02:54:11;;;;;;;;;;;;;;;0.87;74.20;101777.46;1865941;77;20155;-56
2022/11/01 02:56:39;;;;;;;;;;;;;;;0.85;74.05;101785.61;1866431;76;20121;-56
2022/11/01 02:59:08;;;;;;;;;;;;;;;0.85;73.70;101782.62;1865938;77;20117;-56
2022/11/01 03:01:37;;;;;;;;;;;;;;;0.82;73.73;101782.98;1866334;76;20120;-57
2022/11/01 03:04:05;;;;;;;;;;;;;;;0.78;74.08;101783.78;1866194;77;20401;-56
2022/11/01 03:06:40;;;;;;;;;;;;;;;0.73;74.05;101784.55;1865932;77;20120;-58
2022/11/01 03:09:09;;;;;;;;;;;;;;;0.72;74.26;101790.59;1866037;76;20144;-56
2022/11/01 03:11:41;;;;;;;;;;;;;;;0.71;74.03;101792.72;1866322;77;20144;-56
2022/11/01 03:14:29;;;;;;;;;;;;;;;0.71;73.77;101791.86;1867896;76;20147;-55
2022/11/01 03:17:01;;;;;;;;;;;;;;;0.72;73.59;101790.59;1869832;76;20116;-56
2022/11/01 03:19:39;;;;;;;;;;;;;;;0.70;73.66;101794.88;1868325;76;20116;-56
2022/11/01 03:22:11;;;;;;;;;;;;;;;0.68;73.80;101797.88;1867229;76;20121;-57
2022/11/01 03:24:40;;;;;;;;;;;;;;;0.67;73.73;101790.06;1866137;77;20143;-56
2022/11/01 03:27:16;;;;;;;;;;;;;;;0.68;73.72;101795.68;1865969;77;20112;-55
2022/11/01 03:29:45;;;;;;;;;;;;;;;0.64;73.54;101792.16;1865991;77;20151;-56
2022/11/01 03:32:14;;;;;;;;;;;;;;;0.60;73.73;101793.38;1867162;77;20148;-59
2022/11/01 03:34:43;;;;;;;;;;;;;;;0.60;73.51;101784.31;1866281;77;20151;-58
2022/11/01 03:37:29;;;;;;;;;;;;;;;0.60;73.40;101786.91;1865935;77;20105;-60
2022/11/01 03:39:59;;;;;;;;;;;;;;;0.59;73.25;101786.03;1865885;77;20121;-60
2022/11/01 03:42:27;;;;;;;;;;;;;;;0.57;73.10;101785.11;1865974;77;20346;-60
2022/11/01 03:44:56;;;;;;;;;;;;;;;0.57;73.06;101783.41;1866909;77;20129;-59
2022/11/01 03:47:24;;;;;;;;;;;;;;;0.55;73.16;101788.09;1867466;77;20104;-59
2022/11/01 03:50:12;;;;;;;;;;;;;;;0.52;73.25;101793.24;1867592;76;20120;-59
2022/11/01 03:52:39;;;;;;;;;;;;;;;0.48;73.38;101800.48;1867585;76;20179;-60
2022/11/01 03:55:20;;;;;;;;;;;;;;;0.49;73.21;101808.72;1871328;76;20108;-59
2022/11/01 03:57:48;;;;;;;;;;;;;;;0.50;73.08;101811.75;1865957;77;20100;-60
2022/11/01 04:00:17;;;;;;;;;;;;;;;0.48;72.99;101804.37;1866004;77;20116;-60
2022/11/01 04:02:45;;;;;;;;;;;;;;;0.45;72.99;101800.44;1868792;77;20108;-60
2022/11/01 04:05:13;;;;;;;;;;;;;;;0.45;73.24;101795.27;1870634;75;20175;-59
2022/11/01 04:07:42;;;;;;;;;;;;;;;0.43;73.48;101791.77;1870830;76;20116;-56
2022/11/01 04:10:10;;;;;;;;;;;;;;;0.37;73.63;101800.30;1870748;77;20120;-56
2022/11/01 04:12:39;;;;;;;;;;;;;;;0.34;73.52;101808.86;1870756;77;20116;-56
2022/11/01 04:20:49;;;;;;;;;;;;;;;0.36;73.28;101812.78;1870820;77;20151;-56
2022/11/01 04:23:17;;;;;;;;;;;;;;;0.43;73.06;101807.31;1869419;77;20104;-56
2022/11/01 04:25:48;;;;;;;;;;;;;;;0.48;72.94;101810.84;1868864;77;20147;-56
2022/11/01 04:28:16;;;;;;;;;;;;;;;0.50;72.95;101818.22;1868994;77;20113;-56
2022/11/01 04:30:44;;;;;;;;;;;;;;;0.54;72.82;101822.22;1869016;77;20175;-56
2022/11/01 04:33:12;;;;;;;;;;;;;;;0.54;73.01;101830.42;1868998;77;20116;-56
2022/11/01 04:35:40;;;;;;;;;;;;;;;0.62;72.77;101833.16;1868989;77;20120;-56
2022/11/01 04:38:08;;;;;;;;;;;;;;;0.72;72.64;101834.67;1869040;77;20147;-57
2022/11/01 04:40:37;;;;;;;;;;;;;;;0.83;72.44;101833.98;1869005;77;20410;-56
2022/11/01 04:43:04;;;;;;;;;;;;;;;0.96;72.26;101834.67;1868972;77;20202;-56
2022/11/01 04:45:32;;;;;;;;;;;;;;;1.07;72.08;101837.03;1868507;77;20150;-54
2022/11/01 04:48:02;;;;;;;;;;;;;;;1.25;71.90;101845.97;1869007;77;20124;-54
2022/11/01 04:50:30;;;;;;;;;;;;;;;1.39;71.67;101850.98;1868977;76;20148;-54
2022/11/01 04:52:58;;;;;;;;;;;;;;;1.53;71.44;101865.46;1868944;77;20116;-55
2022/11/01 04:55:27;;;;;;;;;;;;;;;1.51;70.82;101858.98;1869698;77;20116;-55
2022/11/01 04:57:55;;;;;;;;;;;;;;;1.47;70.84;101861.05;1870773;77;20167;-55
2022/11/01 05:00:23;;;;;;;;;;;;;;;1.52;70.94;101863.73;1870790;76;20225;-55
2022/11/01 05:02:51;;;;;;;;;;;;;;;1.61;71.00;101864.31;1868667;76;20108;-57
2022/11/01 05:05:19;;;;;;;;;;;;;;;1.66;70.79;101867.43;1866769;77;20124;-58
2022/11/01 05:07:46;;;;;;;;;;;;;;;1.69;70.61;101863.56;1865994;77;20163;-57
2022/11/01 05:10:14;;;;;;;;;;;;;;;1.71;70.25;101870.08;1866003;77;20121;-56
2022/11/01 05:12:42;;;;;;;;;;;;;;;1.70;70.27;101873.11;1865944;77;20116;-54
2022/11/01 05:15:10;;;;;;;;;;;;;;;1.81;70.29;101874.58;1865941;77;20196;-56
2022/11/01 05:17:39;;;;;;;;;;;;;;;1.91;70.19;101880.78;1865883;77;20113;-56
2022/11/01 05:20:07;;;;;;;;;;;;;;;2.03;70.11;101882.67;1865909;77;20206;-57
2022/11/01 05:22:35;;;;;;;;;;;;;;;2.10;69.88;101880.61;1865982;77;20148;-57
2022/11/01 05:25:03;;;;;;;;;;;;;;;2.18;69.81;101876.41;1867443;76;20116;-57
2022/11/01 05:27:31;;;;;;;;;;;;;;;2.25;69.69;101891.23;1867475;77;20146;-56
2022/11/01 05:29:59;;;;;;;;;;;;;;;2.26;69.31;101886.47;1867462;77;20152;-56
2022/11/01 05:32:26;;;;;;;;;;;;;;;2.25;69.34;101888.64;1867350;76;20112;-58
2022/11/01 05:34:54;;;;;;;;;;;;;;;2.34;69.47;101894.37;1865279;77;20183;-56
2022/11/01 05:37:22;;;;;;;;;;;;;;;2.52;69.52;101895.04;1865914;77;20117;-55
2022/11/01 05:39:50;;;;;;;;;;;;;;;2.72;69.42;101889.23;1865958;77;20121;-55
2022/11/01 05:42:18;;;;;;;;;;;;;;;2.83;68.86;101888.48;1866147;77;20405;-55
2022/11/01 05:44:46;;;;;;;;;;;;;;;2.89;68.57;101885.94;1865888;77;20159;-55
2022/11/01 05:47:13;;;;;;;;;;;;;;;2.99;68.60;101886.94;1865852;77;20187;-56
2022/11/01 05:49:42;;;;;;;;;;;;;;;3.15;68.52;101884.04;1865909;77;20159;-55
2022/11/01 05:52:09;;;;;;;;;;;;;;;3.30;68.28;101891.13;1865911;77;20116;-56
2022/11/01 05:54:37;;;;;;;;;;;;;;;3.43;68.26;101886.50;1865891;77;20121;-56
2022/11/01 05:57:05;;;;;;;;;;;;;;;3.60;68.21;101885.77;1836538;78;20157;-57
2022/11/01 05:59:33;;;;;;;;;;;;;;;3.74;67.89;101884.56;1836431;78;20122;-58
2022/11/01 06:02:01;;;;;;;;;;;;;;;3.90;67.80;101884.25;1836529;77;20118;-57
2022/11/01 06:04:29;;;;;;;;;;;;;;;4.01;67.72;101882.58;1838795;77;20118;-58
2022/11/01 06:06:56;;;;;;;;;;;;;;;4.00;66.75;101888.23;1836527;78;20149;-57
2022/11/01 06:09:24;;;;;;;;;;;;;;;3.99;66.80;101883.02;1836591;78;20146;-57
2022/11/01 06:11:52;;;;;;;;;;;;;;;4.06;66.77;101888.27;1836558;78;20147;-58
2022/11/01 06:14:20;;;;;;;;;;;;;;;4.24;66.62;101887.52;1836484;78;20122;-57
2022/11/01 06:16:47;;;;;;;;;;;;;;;4.69;66.04;101892.06;1839666;77;20123;-51
2022/11/01 06:19:15;;;;;;;;;;;;;;;4.91;65.68;101884.73;1834739;78;20166;-51
2022/11/01 06:21:43;;;;;;;;;;;;;;;5.19;65.66;101884.35;1834811;77;20115;-52
2022/11/01 06:24:11;;;;;;;;;;;;;;;5.48;65.56;101876.09;1855941;77;20124;-51
2022/11/01 06:26:39;;;;;;;;;;;;;;;5.60;64.31;101873.05;1865813;77;20141;-51
2022/11/01 06:29:07;;;;;;;;;;;;;;;5.62;63.93;101875.67;1866018;77;20155;-48
2022/11/01 06:31:35;;;;;;;;;;;;;;;5.66;63.50;101872.17;1866045;77;20118;-51
2022/11/01 06:34:02;;;;;;;;;;;;;;;5.68;63.83;101871.77;1865991;77;20120;-50
2022/11/01 06:36:30;;;;;;;;;;;;;;;5.75;63.92;101873.92;1865991;77;20104;-49
2022/11/01 06:38:58;;;;;;;;;;;;;;;5.93;63.89;101880.87;1865986;77;20151;-47
2022/11/01 06:41:26;;;;;;;;;;;;;;;6.07;63.97;101876.53;1865967;77;20155;-50
2022/11/01 06:43:54;;;;;;;;;;;;;;;6.23;63.98;101875.17;1866116;77;20265;-50
2022/11/01 06:46:22;;;;;;;;;;;;;;;6.56;64.00;101872.88;1867523;77;20120;-50
2022/11/01 06:48:50;;;;;;;;;;;;;;;6.81;64.00;101874.09;1867492;77;20143;-50
2022/11/01 06:51:17;;;;;;;;;;;;;;;6.88;63.82;101871.42;1867498;77;20143;-57
2022/11/01 06:53:45;;;;;;;;;;;;;;;6.94;63.74;101872.69;1867402;77;20198;-57
2022/11/01 06:56:13;;;;;;;;;;;;;;;7.05;63.74;101879.62;1866248;76;20124;-57
2022/11/01 06:58:41;;;;;;;;;;;;;;;7.14;63.78;101879.56;1866017;77;20118;-56
2022/11/01 07:01:09;;;;;;;;;;;;;;;7.21;63.80;101876.03;1865978;77;20168;-58
2022/11/01 07:03:36;;;;;;;;;;;;;;;7.15;63.59;101876.05;1857341;76;20126;-58
2022/11/01 07:06:04;;;;;;;;;;;;;;;7.19;63.87;101875.14;1846591;77;20122;-58
2022/11/01 07:08:32;;;;;;;;;;;;;;;7.22;63.84;101870.34;1847162;78;20193;-58
2022/11/01 07:11:00;;;;;;;;;;;;;;;7.32;63.87;101875.51;1847211;78;20114;-58
2022/11/01 07:13:32;;;;;;;;;;;;;;;7.47;63.89;101876.25;1847209;78;20118;-58
2022/11/01 07:15:57;;;;;;;;;;;;;;;7.53;63.72;101884.08;1846352;77;20149;-56
2022/11/01 07:18:25;;;;;;;;;;;;;;;7.60;63.77;101884.46;1845712;78;20165;-56
2022/11/01 07:20:53;;;;;;;;;;;;;;;7.64;63.60;101880.92;1845612;78;20118;-56
2022/11/01 07:23:20;;;;;;;;;;;;;;;7.70;63.48;101876.92;1846106;78;20122;-56
2022/11/01 07:25:52;;;;;;;;;;;;;;;7.86;63.56;101877.67;1847186;77;20114;-57
2022/11/01 07:28:20;;;;;;;;;;;;;;;8.03;63.64;101880.13;1847165;78;20360;-57
2022/11/01 07:30:49;;;;;;;;;;;;;;;8.15;63.67;101879.11;1847200;78;20145;-57
2022/11/01 07:33:17;;;;;;;;;;;;;;;8.29;63.69;101878.52;1846876;77;20206;-57
2022/11/01 07:35:45;;;;;;;;;;;;;;;8.44;63.63;101878.81;1847148;78;20161;-57
2022/11/01 07:38:13;;;;;;;;;;;;;;;8.54;63.50;101880.02;1847105;78;20153;-58
2022/11/01 07:40:43;;;;;;;;;;;;;;;8.61;63.28;101879.05;1847167;77;20115;-55
2022/11/01 07:43:11;;;;;;;;;;;;;;;8.68;63.39;101883.34;1847199;77;20483;-55
2022/11/01 07:45:39;;;;;;;;;;;;;;;8.78;63.53;101883.66;1846952;77;20118;-57
2022/11/01 07:48:12;;;;;;;;;;;;;;;8.94;63.52;101881.67;1847067;78;20189;-57
2022/11/01 07:50:38;;;;;;;;;;;;;;;9.13;63.51;101877.47;1846346;76;20126;-57
2022/11/01 07:53:10;;;;;;;;;;;;;;;9.21;63.13;101873.84;1847194;78;20189;-57
2022/11/01 07:55:38;;;;;;;;;;;;;;;9.24;62.99;101879.06;1846317;77;20219;-57
2022/11/01 07:58:07;;;;;;;;;;;;;;;9.26;62.68;101874.65;1845682;78;20200;-57
2022/11/01 08:00:35;;;;;;;;;;;;;;;9.22;62.19;101886.11;1845582;78;20119;-57
2022/11/01 08:03:04;;;;;;;;;;;;;;;9.20;62.37;101883.95;1845691;78;20153;-57
2022/11/01 08:05:32;;;;;;;;;;;;;;;9.19;62.41;101880.89;1866362;76;20146;-57
2022/11/01 08:08:00;;;;;;;;;;;;;;;9.16;62.10;101888.80;1869313;76;20124;-57
2022/11/01 08:10:28;;;;;;;;;;;;;;;9.14;61.68;101894.98;1869422;77;20193;-57
2022/11/01 08:13:00;;;;;;;;;;;;;;;9.18;61.63;101898.84;1868150;77;20179;-57
2022/11/01 08:15:28;;;;;;;;;;;;;;;9.30;61.54;101898.27;1869336;77;20105;-59
2022/11/01 08:17:56;;;;;;;;;;;;;;;9.57;61.41;101896.94;1869291;77;20261;-61
2022/11/01 08:20:25;;;;;;;;;;;;;;;9.80;61.26;101892.17;1869315;77;20147;-60
2022/11/01 08:22:53;;;;;;;;;;;;;;;10.05;60.42;101894.34;1869592;77;20265;-60
2022/11/01 08:25:21;;;;;;;;;;;;;;;12.32;58.10;101888.31;1871014;76;20143;-61
2022/11/01 08:27:49;;;;;;;;;;;;;;;14.65;54.94;101885.58;1871106;77;20198;-60
2022/11/01 08:30:18;;;;;;;;;;;;;;;15.60;53.73;101873.41;1871108;77;20147;-60
2022/11/01 08:32:45;;;;;;;;;;;;;;;16.11;52.53;101874.78;1871142;77;20124;-56
2022/11/01 08:35:13;;;;;;;;;;;;;;;17.72;47.90;101866.30;1868633;77;20151;-56
2022/11/01 08:37:43;;;;;;;;;;;;;;;19.03;47.11;101869.98;1869321;77;20116;-56
2022/11/01 08:40:11;;;;;;;;;;;;;;;19.72;46.07;101868.25;1868586;76;20116;-58
2022/11/01 08:42:39;;;;;;;;;;;;;;;20.91;44.81;101875.17;1869306;77;20120;-59
2022/11/01 08:45:07;;;;;;;;;;;;;;;21.52;45.07;101868.95;1869289;77;20171;-59
2022/11/01 08:47:35;;;;;;;;;;;;;;;21.61;45.16;101868.81;1869298;77;20124;-57
2022/11/01 08:50:03;;;;;;;;;;;;;;;21.04;46.03;101864.04;1869393;77;20116;-58
2022/11/01 08:52:31;;;;;;;;;;;;;;;20.28;46.41;101868.44;1869198;77;20120;-57
2022/11/01 08:54:59;;;;;;;;;;;;;;;20.79;45.80;101856.28;1869572;77;20254;-58
2022/11/01 08:57:26;;;;;;;;;;;;;;;19.49;47.29;101871.78;1871148;76;20243;-62
2022/11/01 08:59:54;;;;;;;;;;;;;;;17.85;48.58;101873.66;1870877;77;20104;-57
2022/11/01 09:02:22;;;;;;;;;;;;;;;16.53;49.61;101859.64;1869549;77;20154;-57
2022/11/01 09:04:50;;;;;;;;;;;;;;;17.67;46.13;101860.33;1870370;77;20104;-57
2022/11/01 09:07:18;;;;;;;;;;;;;;;19.33;44.49;101858.94;1869764;77;20124;-57
2022/11/01 09:09:46;;;;;;;;;;;;;;;20.41;41.01;101858.20;1868003;77;20453;-57
2022/11/01 09:12:14;;;;;;;;;;;;;;;21.08;39.21;101851.31;1871084;77;20120;-57
2022/11/01 09:14:41;;;;;;;;;;;;;;;21.59;39.43;101849.67;1871290;77;20120;-57
2022/11/01 09:17:09;;;;;;;;;;;;;;;22.30;37.18;101840.78;1869430;77;20153;-56
2022/11/01 09:19:37;;;;;;;;;;;;;;;20.81;38.79;101850.83;1868101;77;20113;-57
2022/11/01 09:22:05;;;;;;;;;;;;;;;19.06;40.90;101846.25;1869244;77;20120;-56
2022/11/01 09:24:33;;;;;;;;;;;;;;;20.14;39.29;101843.87;1869228;77;20249;-56
2022/11/01 09:27:02;;;;;;;;;;;;;;;21.21;38.06;101838.85;1869280;77;20387;-56
2022/11/01 09:29:30;;;;;;;;;;;;;;;22.11;37.74;101834.50;1869279;77;20105;-57
2022/11/01 09:31:58;;;;;;;;;;;;;;;22.85;37.52;101839.06;1869266;77;20120;-58
2022/11/01 09:34:26;;;;;;;;;;;;;;;23.21;36.17;101831.97;1869047;77;20241;-56
2022/11/01 09:36:54;;;;;;;;;;;;;;;23.31;36.44;101837.00;1870033;77;20108;-55
2022/11/01 09:39:21;;;;;;;;;;;;;;;22.70;38.04;101837.02;1877108;75;20114;-55
2022/11/01 09:41:54;;;;;;;;;;;;;;;23.09;37.09;101839.11;1893337;75;20110;-56
2022/11/01 09:44:27;;;;;;;;;;;;;;;23.54;36.99;101835.76;1903112;75;20106;-56
2022/11/01 09:46:59;;;;;;;;;;;;;;;23.92;36.48;101825.22;1888831;75;20227;-54
2022/11/01 09:49:30;;;;;;;;;;;;;;;24.01;34.96;101823.99;1885738;76;20231;-56
2022/11/01 09:51:58;;;;;;;;;;;;;;;23.99;35.04;101831.83;1885741;76;20223;-53
2022/11/01 09:54:26;;;;;;;;;;;;;;;22.92;35.31;101830.94;1871358;76;20104;-54
2022/11/01 09:57:07;;;;;;;;;;;;;;;21.39;37.69;101834.94;1853377;77;20120;-56
2022/11/01 09:59:43;;;;;;;;;;;;;;;21.92;36.50;101829.55;1864384;77;20206;-57
2022/11/01 10:02:29;;;;;;;;;;;;;;;22.68;35.62;101833.11;1846686;77;20149;-55
2022/11/01 10:04:58;;;;;;;;;;;;;;;22.24;35.54;101829.58;1837530;77;20197;-56
2022/11/01 10:07:34;;;;;;;;;;;;;;;20.59;37.32;101829.91;1835009;77;20128;-55
2022/11/01 10:10:06;;;;;;;;;;;;;;;21.14;36.95;101828.16;1835096;78;20158;-52
2022/11/01 10:12:38;;;;;;;;;;;;;;;21.95;36.03;101828.49;1835043;76;20122;-52
2022/11/01 10:15:10;;;;;;;;;;;;;;;22.57;35.40;101826.33;1801780;78;20114;-49
2022/11/01 10:17:49;;;;;;;;;;;;;;;23.07;35.00;101827.62;1857241;76;20116;-56
2022/11/01 10:20:19;;;;;;;;;;;;;;;21.32;36.21;101824.71;1867077;77;20489;-56
2022/11/01 10:22:48;;;;;;;;;;;;;;;20.25;36.78;101831.58;1880191;76;20156;-56
2022/11/01 10:25:23;;;;;;;;;;;;;;;19.90;36.78;101832.88;1894334;76;20110;-57
2022/11/01 10:28:10;;;;;;;;;;;;;;;19.99;36.16;101826.97;1889774;76;20110;-56
2022/11/01 10:30:40;;;;;;;;;;;;;;;19.83;36.45;101829.74;1882187;76;20120;-56
2022/11/01 10:33:18;;;;;;;;;;;;;;;19.03;37.63;101835.73;1876491;75;20116;-57
2022/11/01 10:35:50;;;;;;;;;;;;;;;18.27;38.17;101843.88;1861872;77;20120;-54
2022/11/01 10:38:31;;;;;;;;;;;;;;;19.18;37.19;101830.87;1867486;77;20163;-55
2022/11/01 10:41:12;;;;;;;;;;;;;;;19.06;37.67;101831.56;1866606;76;20117;-55
2022/11/01 10:43:42;;;;;;;;;;;;;;;19.35;37.53;101839.67;1860632;77;20116;-55
2022/11/01 10:46:12;;;;;;;;;;;;;;;20.31;36.25;101830.33;1860815;77;20121;-56
2022/11/01 10:48:41;;;;;;;;;;;;;;;20.80;35.69;101827.23;1867504;77;20129;-56
2022/11/01 10:51:10;;;;;;;;;;;;;;;20.92;34.42;101832.73;1867678;76;20120;-56
2022/11/01 10:53:39;;;;;;;;;;;;;;;19.94;35.55;101835.28;1867408;77;20420;-56
2022/11/01 10:56:09;;;;;;;;;;;;;;;20.16;35.45;101844.64;1866603;76;20202;-56
2022/11/01 10:58:38;;;;;;;;;;;;;;;20.49;35.03;101839.47;1866035;77;20394;-54
2022/11/01 11:01:07;;;;;;;;;;;;;;;20.88;34.96;101829.86;1865996;76;20112;-53
2022/11/01 11:03:36;;;;;;;;;;;;;;;21.27;34.90;101833.08;1865967;77;20190;-54
2022/11/01 11:06:05;;;;;;;;;;;;;;;21.54;34.79;101840.22;1867247;77;20116;-49
2022/11/01 11:08:35;;;;;;;;;;;;;;;21.56;34.99;101836.50;1869216;77;20117;-51
2022/11/01 11:11:04;;;;;;;;;;;;;;;21.63;34.61;101830.70;1869053;77;20366;-49
2022/11/01 11:13:34;;;;;;;;;;;;;;;21.33;34.86;101843.86;1869010;77;20390;-51
2022/11/01 11:16:06;;;;;;;;;;;;;;;21.15;35.08;101841.42;1869022;77;20414;-52
2022/11/01 11:18:36;;;;;;;;;;;;;;;21.10;35.40;101844.03;1869025;77;20116;-46
2022/11/01 11:21:13;;;;;;;;;;;;;;;20.98;35.16;101846.56;1869157;76;20402;-52
2022/11/01 11:23:43;;;;;;;;;;;;;;;20.70;35.18;101838.14;1868993;77;20116;-51
2022/11/01 11:26:15;;;;;;;;;;;;;;;20.27;35.43;101844.86;1868973;77;20104;-52
2022/11/01 11:28:43;;;;;;;;;;;;;;;19.97;35.33;101845.77;1868960;76;20143;-51
2022/11/01 11:31:18;;;;;;;;;;;;;;;19.79;35.56;101845.55;1868915;77;20151;-52
2022/11/01 11:34:00;;;;;;;;;;;;;;;19.60;36.11;101845.29;1869055;77;20143;-50
2022/11/01 11:36:29;;;;;;;;;;;;;;;18.99;36.76;101856.88;1868924;77;20175;-46
2022/11/01 11:38:57;;;;;;;;;;;;;;;18.61;37.61;101850.51;1870289;75;20167;-48
2022/11/01 11:41:34;;;;;;;;;;;;;;;18.38;37.23;101855.30;1870412;77;20143;-54
2022/11/01 11:44:02;;;;;;;;;;;;;;;18.28;37.65;101860.77;1870589;77;20108;-55
2022/11/01 11:46:30;;;;;;;;;;;;;;;18.08;37.85;101858.67;1870710;77;20104;-53
2022/11/01 11:49:06;;;;;;;;;;;;;;;17.41;38.52;101859.44;1853070;77;20170;-50
2022/11/01 11:51:41;;;;;;;;;;;;;;;16.62;39.05;101857.88;1838089;78;20119;-49
2022/11/01 11:54:24;;;;;;;;;;;;;;;15.85;39.71;101861.80;1860986;77;20181;-47
2022/11/01 11:56:53;;;;;;;;;;;;;;;15.29;40.29;101864.09;1868329;77;20108;-47
2022/11/01 11:59:29;;;;;;;;;;;;;;;14.84;41.15;101863.66;1857587;76;20153;-52
2022/11/01 12:02:01;;;;;;;;;;;;;;;14.42;41.16;101861.69;1838081;78;20118;-54
2022/11/01 12:04:33;;;;;;;;;;;;;;;14.11;41.69;101865.48;1864186;77;20120;-55
2022/11/01 12:07:01;;;;;;;;;;;;;;;13.87;40.91;101869.39;1870031;76;20120;-49
2022/11/01 12:09:33;;;;;;;;;;;;;;;13.60;42.32;101861.08;1870828;76;20120;-50
2022/11/01 12:12:19;;;;;;;;;;;;;;;13.51;42.88;101873.69;1867410;75;20190;-55
2022/11/01 12:14:47;;;;;;;;;;;;;;;13.38;42.99;101875.01;1870979;77;20144;-55
2022/11/01 12:17:35;;;;;;;;;;;;;;;13.25;43.07;101868.36;1870650;75;20117;-53
2022/11/01 12:20:10;;;;;;;;;;;;;;;13.14;43.38;101862.94;1872575;75;20108;-59
2022/11/01 12:22:40;;;;;;;;;;;;;;;13.08;43.64;101864.94;1892825;75;20120;-56
2022/11/01 12:25:09;;;;;;;;;;;;;;;13.02;43.31;101866.00;1871032;76;20198;-57
2022/11/01 12:27:37;;;;;;;;;;;;;;;12.96;43.49;101874.09;1871285;76;20219;-57
2022/11/01 12:30:08;;;;;;;;;;;;;;;12.85;43.65;101873.56;1871128;77;20116;-54
2022/11/01 12:32:44;;;;;;;;;;;;;;;12.75;43.86;101871.20;1871116;77;20104;-57
2022/11/01 12:35:16;;;;;;;;;;;;;;;12.64;44.17;101875.95;1842797;76;20153;-57
2022/11/01 12:37:45;;;;;;;;;;;;;;;12.48;44.28;101866.27;1833192;78;20123;-58
2022/11/01 12:40:15;;;;;;;;;;;;;;;12.46;44.35;101879.12;1833387;78;20153;-59
2022/11/01 12:42:50;;;;;;;;;;;;;;;12.41;44.53;101869.14;1833403;78;20118;-59
2022/11/01 12:45:29;;;;;;;;;;;;;;;12.34;44.69;101880.35;1833435;78;20146;-59
2022/11/01 12:48:07;;;;;;;;;;;;;;;12.27;44.75;101879.64;1833354;78;20153;-59
2022/11/01 12:50:39;;;;;;;;;;;;;;;12.16;44.71;101873.34;1845430;75;20208;-59
2022/11/01 12:53:12;;;;;;;;;;;;;;;12.10;44.96;101873.98;1892604;75;20176;-59
2022/11/01 12:55:41;;;;;;;;;;;;;;;12.04;45.08;101874.13;1894868;75;20118;-59
2022/11/01 12:58:13;;;;;;;;;;;;;;;11.94;45.29;101873.52;1877482;75;20155;-60
2022/11/01 13:00:42;;;;;;;;;;;;;;;11.87;45.50;101878.50;1870915;76;20116;-60
2022/11/01 13:03:18;;;;;;;;;;;;;;;11.73;45.76;101885.44;1870675;76;20150;-59
2022/11/01 13:06:02;;;;;;;;;;;;;;;11.65;45.97;101884.33;1870716;77;20101;-62